Terminal Aerodrome Forecast
Issued by NWS Cleveland, OH

Home | Current Version | Previous Version | Graphics & Text | Print | Product List | Glossary On
Versions: 1 2 3 4 5 6 7 8 9 10 11 12 13 14 15 16 17 18 19 20 21
000
FTUS41 KCLE 181700
TAFYNG
TAF
KYNG 181740Z 1818/1918 30010G18KT P6SM -SHRA BKN015 OVC025
      TEMPO 1818/1820 30010KT 5SM -SHRA BKN008
     FM182000 30012G20KT P6SM VCSH BKN018 OVC035
     FM190300 30010KT P6SM BKN035
     FM191000 29008KT P6SM BKN028=

USA.gov is the U.S. government's official web portal to all federal, state and local government web resources and services.